Time;durP1;ratioP1;P1;durP2;ratioP2;P2;SDS_P1;SDS_P2;PMS_P1;PMS_P2;Temp;Humidity;BMP_temperature;BMP_pressure;BME280_temperature;BME280_humidity;BME280_pressure;Samples;Min_cycle;Max_cycle;Signal;HPM_P1;HPM_P2
2022/06/01 00:02:22;;;;;;;1.77;0.90;;;;;;;;;;5015058;28;20036;-59
2022/06/01 00:04:48;;;;;;;1.48;0.80;;;;;;;;;;5013463;28;20037;-58
2022/06/01 00:07:14;;;;;;;1.15;0.82;;;;;;;;;;5014259;28;20073;-58
2022/06/01 00:09:40;;;;;;;3.42;1.10;;;;;;;;;;5013801;28;20538;-58
2022/06/01 00:12:07;;;;;;;1.27;1.00;;;;;;;;;;5013079;28;20034;-58
2022/06/01 00:14:33;;;;;;;3.65;1.27;;;;;;;;;;5013840;28;20022;-58
2022/06/01 00:16:59;;;;;;;2.78;1.02;;;;;;;;;;5012933;28;20034;-58
2022/06/01 00:19:25;;;;;;;1.70;1.02;;;;;;;;;;5013304;28;20463;-59
2022/06/01 00:24:38;;;;;;;1.60;0.90;;;;;;;;;;5013705;28;20025;-58
2022/06/01 00:27:05;;;;;;;1.02;0.77;;;;;;;;;;5012959;28;20018;-58
2022/06/01 00:29:31;;;;;;;1.30;0.70;;;;;;;;;;5013883;28;20026;-58
2022/06/01 00:31:57;;;;;;;1.17;1.00;;;;;;;;;;5012811;28;20112;-58
2022/06/01 00:34:23;;;;;;;1.15;0.80;;;;;;;;;;5013521;28;20110;-58
2022/06/01 00:36:49;;;;;;;1.40;0.77;;;;;;;;;;5012952;28;20037;-58
2022/06/01 00:39:15;;;;;;;1.23;0.85;;;;;;;;;;5013720;28;20026;-58
2022/06/01 00:41:41;;;;;;;1.17;0.85;;;;;;;;;;5013438;28;20328;-58
2022/06/01 00:44:07;;;;;;;1.73;0.90;;;;;;;;;;5012895;28;20030;-58
2022/06/01 00:46:33;;;;;;;2.13;1.10;;;;;;;;;;5013401;28;20050;-58
2022/06/01 00:49:02;;;;;;;1.42;0.90;;;;;;;;;;5012814;28;20091;-58
2022/06/01 00:51:29;;;;;;;3.08;0.98;;;;;;;;;;5013112;28;20107;-59
2022/06/01 00:53:56;;;;;;;1.77;1.02;;;;;;;;;;5012509;28;20037;-59
2022/06/01 00:56:26;;;;;;;1.33;0.90;;;;;;;;;;5013566;28;20371;-59
2022/06/01 00:58:52;;;;;;;1.73;1.02;;;;;;;;;;5012122;28;20080;-59
2022/06/01 01:01:20;;;;;;;1.45;1.00;;;;;;;;;;5013072;28;20048;-59
2022/06/01 01:03:49;;;;;;;2.08;1.20;;;;;;;;;;5012320;28;20021;-59
2022/06/01 01:06:25;;;;;;;1.20;0.80;;;;;;;;;;5012801;28;20018;-58
2022/06/01 01:08:51;;;;;;;1.90;0.90;;;;;;;;;;5012176;28;20030;-58
2022/06/01 01:11:20;;;;;;;0.98;0.70;;;;;;;;;;5012799;28;20034;-58
2022/06/01 01:13:48;;;;;;;1.42;1.10;;;;;;;;;;5012356;28;20535;-58
2022/06/01 01:16:15;;;;;;;1.23;0.82;;;;;;;;;;5012649;28;20034;-58
2022/06/01 01:18:43;;;;;;;1.90;0.65;;;;;;;;;;5013005;28;20424;-58
2022/06/01 01:21:09;;;;;;;1.05;0.95;;;;;;;;;;5011405;28;20129;-58
2022/06/01 01:23:54;;;;;;;1.15;1.00;;;;;;;;;;5012962;28;20026;-59
2022/06/01 01:26:22;;;;;;;1.38;0.90;;;;;;;;;;5012623;28;20042;-58
2022/06/01 01:28:48;;;;;;;1.20;0.90;;;;;;;;;;5012221;28;20034;-58
2022/06/01 01:31:18;;;;;;;0.90;0.75;;;;;;;;;;5012370;28;20534;-58
2022/06/01 01:33:45;;;;;;;1.40;1.00;;;;;;;;;;5012640;28;20103;-58
2022/06/01 01:36:13;;;;;;;1.45;0.90;;;;;;;;;;5011634;28;20092;-58
2022/06/01 01:38:57;;;;;;;1.67;0.90;;;;;;;;;;5010878;28;20022;-58
2022/06/01 01:41:29;;;;;;;0.98;0.60;;;;;;;;;;5011103;28;20456;-58
2022/06/01 01:44:13;;;;;;;1.02;0.82;;;;;;;;;;5010374;28;20041;-59
2022/06/01 01:46:39;;;;;;;1.85;1.00;;;;;;;;;;5010152;28;20041;-59
2022/06/01 01:49:06;;;;;;;1.33;0.93;;;;;;;;;;5009845;28;20032;-58
2022/06/01 01:51:33;;;;;;;0.95;0.80;;;;;;;;;;5010428;28;20076;-58
2022/06/01 01:53:59;;;;;;;1.88;0.95;;;;;;;;;;5009721;28;20057;-58
2022/06/01 01:56:57;;;;;;;1.92;1.10;;;;;;;;;;5009833;28;20537;-58
2022/06/01 01:59:23;;;;;;;1.17;0.95;;;;;;;;;;4967285;28;20041;-58
2022/06/01 02:01:54;;;;;;;1.33;0.98;;;;;;;;;;5009987;28;20126;-59
2022/06/01 02:07:11;;;;;;;1.17;0.90;;;;;;;;;;5009370;28;20543;-59
2022/06/01 02:15:08;;;;;;;1.30;0.68;;;;;;;;;;5008829;28;20052;-59
2022/06/01 02:17:39;;;;;;;1.40;1.15;;;;;;;;;;5008499;28;20030;-58
2022/06/01 02:20:05;;;;;;;1.33;0.80;;;;;;;;;;5009765;28;20169;-58
2022/06/01 02:22:31;;;;;;;1.40;0.95;;;;;;;;;;5009720;28;20034;-58
2022/06/01 02:25:00;;;;;;;1.73;1.00;;;;;;;;;;5009714;28;20035;-58
2022/06/01 02:27:26;;;;;;;0.95;0.85;;;;;;;;;;5010092;28;20486;-58
2022/06/01 02:29:55;;;;;;;1.55;0.93;;;;;;;;;;5010665;28;20022;-58
2022/06/01 02:32:22;;;;;;;2.05;1.33;;;;;;;;;;5011793;28;20121;-58
2022/06/01 02:34:49;;;;;;;0.90;0.70;;;;;;;;;;5011007;28;20026;-58
2022/06/01 02:37:15;;;;;;;1.33;1.10;;;;;;;;;;5011406;28;20022;-59
2022/06/01 02:39:43;;;;;;;1.35;0.95;;;;;;;;;;5011496;28;20455;-59
2022/06/01 02:42:28;;;;;;;1.83;1.00;;;;;;;;;;5010756;28;20140;-59
2022/06/01 02:45:00;;;;;;;1.13;1.00;;;;;;;;;;5010651;28;20097;-58
2022/06/01 02:47:27;;;;;;;1.95;1.20;;;;;;;;;;5011080;28;20141;-58
2022/06/01 02:49:53;;;;;;;0.85;0.80;;;;;;;;;;5011047;28;20030;-59
2022/06/01 02:52:20;;;;;;;1.17;1.05;;;;;;;;;;5010865;28;20033;-58
2022/06/01 02:54:46;;;;;;;0.65;0.60;;;;;;;;;;5011636;28;20383;-58
2022/06/01 02:57:14;;;;;;;1.40;1.00;;;;;;;;;;5010792;28;20033;-58
2022/06/01 02:59:40;;;;;;;1.13;0.70;;;;;;;;;;5011382;28;20064;-59
2022/06/01 03:02:06;;;;;;;1.67;1.17;;;;;;;;;;5010937;28;20057;-58
2022/06/01 03:04:32;;;;;;;1.05;0.90;;;;;;;;;;5011212;28;20105;-58
2022/06/01 03:06:58;;;;;;;1.20;1.10;;;;;;;;;;5014326;28;20018;-58
2022/06/01 03:09:24;;;;;;;1.48;0.95;;;;;;;;;;5015285;28;20383;-59
2022/06/01 03:11:50;;;;;;;1.60;0.90;;;;;;;;;;5014099;28;20057;-59
2022/06/01 03:14:16;;;;;;;1.08;0.90;;;;;;;;;;5014785;28;20033;-58
2022/06/01 03:16:42;;;;;;;1.80;1.48;;;;;;;;;;5014329;28;20022;-58
2022/06/01 03:19:08;;;;;;;2.08;1.02;;;;;;;;;;5014189;28;20033;-59
2022/06/01 03:21:34;;;;;;;2.15;0.88;;;;;;;;;;5015124;28;20487;-58
2022/06/01 03:24:01;;;;;;;1.25;0.80;;;;;;;;;;5013527;28;20391;-58
2022/06/01 03:26:27;;;;;;;1.38;0.88;;;;;;;;;;5014818;28;20022;-59
2022/06/01 03:28:53;;;;;;;2.97;1.00;;;;;;;;;;5014301;28;20033;-58
2022/06/01 03:31:19;;;;;;;1.15;0.90;;;;;;;;;;5014324;28;20038;-58
2022/06/01 03:33:45;;;;;;;1.25;1.05;;;;;;;;;;5014855;28;20030;-58
2022/06/01 03:36:11;;;;;;;1.83;1.20;;;;;;;;;;5013665;28;20629;-58
2022/06/01 03:38:37;;;;;;;1.83;1.08;;;;;;;;;;5013577;28;20022;-59
2022/06/01 03:41:03;;;;;;;1.65;1.10;;;;;;;;;;5013800;28;20029;-58
2022/06/01 03:43:30;;;;;;;1.77;0.80;;;;;;;;;;5014390;28;20030;-59
2022/06/01 03:45:57;;;;;;;3.30;0.70;;;;;;;;;;5013397;28;20050;-58
2022/06/01 03:48:24;;;;;;;1.98;0.93;;;;;;;;;;5014678;28;20414;-58
2022/06/01 03:50:50;;;;;;;1.48;1.08;;;;;;;;;;4996093;28;20053;-59
2022/06/01 03:53:16;;;;;;;2.10;1.10;;;;;;;;;;5013813;28;20034;-58
2022/06/01 03:55:42;;;;;;;1.00;0.80;;;;;;;;;;5014298;28;20467;-58
2022/06/01 03:58:19;;;;;;;1.25;1.00;;;;;;;;;;4995908;28;20434;-58
2022/06/01 04:00:46;;;;;;;1.67;1.10;;;;;;;;;;5014294;28;20092;-58
2022/06/01 04:03:12;;;;;;;1.50;0.90;;;;;;;;;;5013181;28;20026;-59
2022/06/01 04:05:38;;;;;;;1.38;0.90;;;;;;;;;;5014110;28;20030;-58
2022/06/01 04:08:05;;;;;;;1.45;0.90;;;;;;;;;;5013096;28;20430;-58
2022/06/01 04:10:31;;;;;;;1.30;1.08;;;;;;;;;;5013580;28;20044;-59
2022/06/01 04:12:57;;;;;;;2.35;1.10;;;;;;;;;;5012401;28;20153;-58
2022/06/01 04:15:23;;;;;;;1.83;1.00;;;;;;;;;;5013242;28;20025;-58
2022/06/01 04:17:49;;;;;;;1.00;0.90;;;;;;;;;;5013431;28;20037;-58
2022/06/01 04:20:15;;;;;;;0.85;0.80;;;;;;;;;;5012668;28;20128;-59
2022/06/01 04:22:42;;;;;;;1.65;0.70;;;;;;;;;;5010538;28;20026;-58
2022/06/01 04:25:09;;;;;;;0.85;0.70;;;;;;;;;;5012805;28;20030;-59
2022/06/01 04:27:36;;;;;;;7.25;1.83;;;;;;;;;;5013565;28;20106;-58
2022/06/01 04:30:02;;;;;;;1.20;0.90;;;;;;;;;;5013213;28;20037;-59
2022/06/01 04:32:31;;;;;;;1.05;0.95;;;;;;;;;;5013791;28;20096;-59
2022/06/01 04:34:57;;;;;;;1.40;0.93;;;;;;;;;;5012788;28;20026;-59
2022/06/01 04:37:23;;;;;;;1.33;0.85;;;;;;;;;;5013726;28;20060;-59
2022/06/01 04:39:49;;;;;;;3.15;1.27;;;;;;;;;;5013485;28;20049;-59
2022/06/01 04:42:15;;;;;;;3.88;1.33;;;;;;;;;;5012585;28;20614;-58
2022/06/01 04:44:41;;;;;;;1.95;0.95;;;;;;;;;;5013781;28;20022;-58
2022/06/01 04:47:09;;;;;;;4.10;1.70;;;;;;;;;;5012299;28;20099;-52
2022/06/01 04:49:35;;;;;;;5.05;1.70;;;;;;;;;;5009710;28;20022;-55
2022/06/01 04:52:01;;;;;;;4.72;1.40;;;;;;;;;;5012651;28;20038;-56
2022/06/01 04:54:27;;;;;;;5.35;1.55;;;;;;;;;;5013605;28;20519;-59
2022/06/01 04:56:53;;;;;;;3.58;1.45;;;;;;;;;;5012009;28;20049;-58
2022/06/01 04:59:19;;;;;;;6.97;1.60;;;;;;;;;;5011799;28;20506;-56
2022/06/01 05:01:46;;;;;;;3.83;1.55;;;;;;;;;;5011225;28;20030;-59
2022/06/01 05:04:12;;;;;;;5.47;1.83;;;;;;;;;;5012062;28;20026;-59
2022/06/01 05:06:38;;;;;;;3.10;1.50;;;;;;;;;;5012935;28;20025;-58
2022/06/01 05:09:04;;;;;;;5.13;1.85;;;;;;;;;;5012312;28;20026;-56
2022/06/01 05:11:30;;;;;;;6.57;1.90;;;;;;;;;;5012501;28;20053;-55
2022/06/01 05:13:56;;;;;;;3.67;1.20;;;;;;;;;;5010865;28;20026;-57
2022/06/01 05:16:22;;;;;;;3.55;1.73;;;;;;;;;;5007123;28;20080;-57
2022/06/01 05:18:48;;;;;;;9.88;1.55;;;;;;;;;;5011862;28;20080;-57
2022/06/01 05:21:14;;;;;;;6.32;1.20;;;;;;;;;;5009051;28;20468;-56
2022/06/01 05:23:40;;;;;;;5.93;1.80;;;;;;;;;;5012890;28;20029;-56
2022/06/01 05:26:06;;;;;;;9.25;1.45;;;;;;;;;;5010713;28;20032;-55
2022/06/01 05:28:33;;;;;;;4.05;1.50;;;;;;;;;;5011346;28;20029;-50
2022/06/01 05:31:01;;;;;;;5.03;1.30;;;;;;;;;;5009514;28;20025;-55
2022/06/01 05:33:27;;;;;;;5.07;2.03;;;;;;;;;;5009004;28;20026;-54
2022/06/01 05:35:53;;;;;;;2.28;1.38;;;;;;;;;;5011547;28;20030;-58
2022/06/01 05:38:20;;;;;;;1.70;1.13;;;;;;;;;;5004721;28;20029;-58
2022/06/01 05:40:46;;;;;;;4.43;1.40;;;;;;;;;;5012468;28;20025;-57
2022/06/01 05:43:13;;;;;;;3.38;1.50;;;;;;;;;;5011167;28;20038;-57
2022/06/01 05:45:39;;;;;;;10.93;1.40;;;;;;;;;;5011461;28;20057;-58
2022/06/01 05:48:07;;;;;;;2.28;1.25;;;;;;;;;;5004884;28;20038;-58
2022/06/01 05:50:33;;;;;;;4.35;1.35;;;;;;;;;;5008576;28;20026;-58
2022/06/01 05:52:59;;;;;;;4.75;1.60;;;;;;;;;;5011528;28;20029;-59
2022/06/01 05:55:25;;;;;;;4.43;1.50;;;;;;;;;;5011997;28;20391;-56
2022/06/01 05:57:51;;;;;;;2.20;1.30;;;;;;;;;;5011915;28;20026;-56
2022/06/01 06:00:17;;;;;;;6.72;1.75;;;;;;;;;;5010802;28;20026;-53
2022/06/01 06:02:43;;;;;;;2.38;1.10;;;;;;;;;;5012081;28;20026;-55
2022/06/01 06:07:55;;;;;;;2.95;1.50;;;;;;;;;;5012063;28;20029;-55
2022/06/01 06:10:22;;;;;;;3.33;1.50;;;;;;;;;;5011527;28;20034;-53
2022/06/01 06:12:48;;;;;;;1.95;1.23;;;;;;;;;;5011692;28;20024;-56
2022/06/01 06:15:14;;;;;;;2.60;1.33;;;;;;;;;;5011053;28;20033;-55
2022/06/01 06:17:40;;;;;;;2.70;1.20;;;;;;;;;;5011321;28;20080;-55
2022/06/01 06:20:07;;;;;;;3.75;1.42;;;;;;;;;;5010719;28;20053;-54
2022/06/01 06:22:33;;;;;;;3.47;1.42;;;;;;;;;;5012056;28;20029;-55
2022/06/01 06:24:59;;;;;;;4.47;1.30;;;;;;;;;;5011502;28;20105;-56
2022/06/01 06:27:28;;;;;;;2.50;1.20;;;;;;;;;;5011763;28;20037;-55
2022/06/01 06:29:54;;;;;;;5.70;1.60;;;;;;;;;;5011782;28;20360;-55
2022/06/01 06:32:21;;;;;;;3.05;1.20;;;;;;;;;;5010773;28;20034;-55
2022/06/01 06:34:46;;;;;;;3.35;1.33;;;;;;;;;;5006980;28;20033;-55
2022/06/01 06:37:13;;;;;;;2.15;1.10;;;;;;;;;;5005785;28;20034;-56
2022/06/01 06:39:39;;;;;;;3.72;1.40;;;;;;;;;;5011504;28;20033;-56
2022/06/01 06:42:05;;;;;;;2.45;1.40;;;;;;;;;;5010438;28;20030;-55
2022/06/01 06:44:33;;;;;;;2.58;1.60;;;;;;;;;;5010640;28;20101;-58
2022/06/01 06:46:59;;;;;;;2.55;1.00;;;;;;;;;;5010265;28;20065;-57
2022/06/01 06:49:25;;;;;;;3.38;1.02;;;;;;;;;;5010622;28;20045;-56
2022/06/01 06:51:51;;;;;;;5.82;1.67;;;;;;;;;;5010857;28;20045;-56
2022/06/01 06:54:18;;;;;;;2.47;1.23;;;;;;;;;;5009705;28;20046;-55
2022/06/01 06:56:44;;;;;;;2.22;1.05;;;;;;;;;;5011065;28;20042;-55
2022/06/01 06:59:12;;;;;;;2.88;1.33;;;;;;;;;;5008219;28;20049;-56
2022/06/01 07:01:38;;;;;;;7.80;1.60;;;;;;;;;;5011157;28;20486;-56
2022/06/01 07:04:04;;;;;;;1.77;1.13;;;;;;;;;;5010256;28;20529;-55
2022/06/01 07:06:31;;;;;;;1.75;1.02;;;;;;;;;;5010973;28;20029;-55
2022/06/01 07:08:57;;;;;;;4.43;1.65;;;;;;;;;;5011111;28;20041;-54
2022/06/01 07:11:24;;;;;;;5.05;1.40;;;;;;;;;;5010252;28;20038;-55
2022/06/01 07:13:51;;;;;;;2.55;1.40;;;;;;;;;;5010916;28;20383;-55
2022/06/01 07:16:19;;;;;;;5.20;1.70;;;;;;;;;;5010205;28;20445;-56
2022/06/01 07:18:47;;;;;;;2.22;1.17;;;;;;;;;;5010821;28;20018;-56
2022/06/01 07:21:14;;;;;;;2.42;1.45;;;;;;;;;;5009990;28;20031;-54
2022/06/01 07:23:40;;;;;;;4.13;2.15;;;;;;;;;;5011340;28;20029;-55
2022/06/01 07:26:08;;;;;;;1.95;1.20;;;;;;;;;;5010429;28;20083;-55
2022/06/01 07:28:35;;;;;;;3.78;1.45;;;;;;;;;;5010304;28;20112;-56
2022/06/01 07:31:01;;;;;;;2.42;1.65;;;;;;;;;;5010882;28;20026;-56
2022/06/01 07:33:28;;;;;;;3.03;1.55;;;;;;;;;;5010750;28;20045;-56
2022/06/01 07:35:55;;;;;;;2.67;1.90;;;;;;;;;;5010415;28;20026;-53
2022/06/01 07:43:52;;;;;;;2.65;1.20;;;;;;;;;;5010323;28;20033;-51
2022/06/01 07:46:18;;;;;;;2.58;1.30;;;;;;;;;;5009110;28;20145;-53
2022/06/01 07:48:44;;;;;;;3.90;1.27;;;;;;;;;;5010223;28;20099;-59
2022/06/01 07:51:10;;;;;;;1.85;1.20;;;;;;;;;;5010868;28;20037;-59
2022/06/01 07:53:36;;;;;;;3.38;1.02;;;;;;;;;;5014126;28;20026;-58
2022/06/01 07:56:02;;;;;;;5.60;1.20;;;;;;;;;;5014134;28;20559;-58
2022/06/01 07:58:28;;;;;;;3.30;1.08;;;;;;;;;;5013693;28;20037;-58
2022/06/01 08:00:54;;;;;;;3.08;1.33;;;;;;;;;;5014223;28;20467;-58
2022/06/01 08:03:21;;;;;;;3.10;1.08;;;;;;;;;;5013320;28;20030;-59
2022/06/01 08:05:47;;;;;;;2.58;1.00;;;;;;;;;;5014207;28;20101;-58
2022/06/01 08:08:13;;;;;;;1.42;0.90;;;;;;;;;;5011587;28;20152;-58
2022/06/01 08:10:39;;;;;;;2.45;1.35;;;;;;;;;;4989922;28;20034;-58
2022/06/01 08:13:09;;;;;;;3.25;1.00;;;;;;;;;;5001499;28;20113;-58
2022/06/01 08:15:37;;;;;;;1.73;1.00;;;;;;;;;;4999190;28;20026;-58
2022/06/01 08:18:03;;;;;;;3.63;1.05;;;;;;;;;;5015197;28;20083;-58
2022/06/01 08:20:30;;;;;;;1.85;1.00;;;;;;;;;;5013930;28;20021;-58
2022/06/01 08:22:56;;;;;;;2.33;0.85;;;;;;;;;;5014026;28;20030;-58
2022/06/01 08:25:23;;;;;;;2.97;1.08;;;;;;;;;;5012960;28;20029;-58
2022/06/01 08:27:49;;;;;;;1.52;0.90;;;;;;;;;;5013125;28;20032;-58
2022/06/01 08:30:16;;;;;;;6.20;1.55;;;;;;;;;;5012764;28;20378;-58
2022/06/01 08:32:42;;;;;;;2.35;1.42;;;;;;;;;;5013629;28;20357;-58
2022/06/01 08:35:09;;;;;;;1.42;0.90;;;;;;;;;;5012574;28;20486;-58
2022/06/01 08:37:35;;;;;;;2.90;1.30;;;;;;;;;;5013212;28;20034;-59
2022/06/01 08:40:01;;;;;;;3.72;1.38;;;;;;;;;;5012983;28;20031;-58
2022/06/01 08:42:28;;;;;;;1.60;1.02;;;;;;;;;;5012196;28;20038;-58
2022/06/01 08:44:55;;;;;;;1.30;0.80;;;;;;;;;;5013111;28;20104;-58
2022/06/01 08:47:25;;;;;;;1.80;1.00;;;;;;;;;;5012595;28;20053;-59
2022/06/01 08:49:51;;;;;;;1.17;0.80;;;;;;;;;;5013522;28;20021;-58
2022/06/01 08:52:17;;;;;;;3.72;0.95;;;;;;;;;;5012138;28;20034;-58
2022/06/01 08:54:43;;;;;;;2.30;1.20;;;;;;;;;;5013251;28;20055;-59
2022/06/01 08:57:19;;;;;;;1.98;0.80;;;;;;;;;;5012129;28;20367;-58
2022/06/01 09:00:06;;;;;;;1.75;1.00;;;;;;;;;;5013348;28;20026;-58
2022/06/01 09:02:50;;;;;;;1.63;0.90;;;;;;;;;;5011470;28;20058;-58
2022/06/01 09:05:26;;;;;;;1.58;0.90;;;;;;;;;;5012471;28;20030;-58
2022/06/01 09:08:00;;;;;;;2.45;1.00;;;;;;;;;;5012998;28;20037;-58
2022/06/01 09:10:32;;;;;;;2.25;0.90;;;;;;;;;;5012359;28;20017;-59
2022/06/01 09:13:09;;;;;;;1.70;0.80;;;;;;;;;;5005767;28;20042;-58
2022/06/01 09:15:49;;;;;;;2.97;0.90;;;;;;;;;;5011848;28;20050;-59
2022/06/01 09:18:19;;;;;;;1.52;1.00;;;;;;;;;;5006224;28;20034;-59
2022/06/01 09:23:30;;;;;;;2.30;0.90;;;;;;;;;;5006981;28;20037;-59
2022/06/01 09:25:57;;;;;;;1.30;0.63;;;;;;;;;;5012813;28;20025;-58
2022/06/01 09:28:27;;;;;;;1.05;0.90;;;;;;;;;;5011311;28;20022;-58
2022/06/01 09:30:56;;;;;;;1.77;1.00;;;;;;;;;;5012305;28;20034;-59
2022/06/01 09:33:22;;;;;;;1.65;1.00;;;;;;;;;;5011346;28;20084;-58
2022/06/01 09:36:01;;;;;;;1.20;0.90;;;;;;;;;;5011835;28;20030;-58
2022/06/01 09:38:45;;;;;;;1.73;0.82;;;;;;;;;;5004440;28;20252;-59
2022/06/01 09:41:36;;;;;;;1.85;0.82;;;;;;;;;;5011771;28;20091;-58
2022/06/01 09:44:03;;;;;;;1.25;1.00;;;;;;;;;;5011242;28;20034;-58
2022/06/01 09:46:37;;;;;;;1.67;0.90;;;;;;;;;;5010384;28;20049;-58
2022/06/01 09:49:24;;;;;;;1.30;0.80;;;;;;;;;;5012307;28;20022;-58
2022/06/01 09:51:54;;;;;;;1.30;0.85;;;;;;;;;;5011600;28;20421;-58
2022/06/01 09:54:23;;;;;;;2.70;1.00;;;;;;;;;;5011247;28;20030;-58
2022/06/01 09:56:50;;;;;;;1.20;1.10;;;;;;;;;;5011713;28;20025;-58
2022/06/01 10:07:48;;;;;;;1.77;0.95;;;;;;;;;;5011722;28;20045;-58
2022/06/01 10:10:25;;;;;;;3.33;0.82;;;;;;;;;;5010727;28;20109;-59
2022/06/01 10:12:52;;;;;;;0.88;0.80;;;;;;;;;;5011016;28;20037;-59
2022/06/01 10:15:42;;;;;;;4.00;1.02;;;;;;;;;;5009970;28;20117;-59
2022/06/01 10:18:17;;;;;;;1.48;0.95;;;;;;;;;;5001156;28;20104;-58
2022/06/01 10:20:52;;;;;;;1.13;0.63;;;;;;;;;;5012171;28;20030;-58
2022/06/01 10:23:37;;;;;;;0.80;0.70;;;;;;;;;;5010508;28;20041;-58
2022/06/01 10:26:09;;;;;;;2.58;0.90;;;;;;;;;;5011544;28;20467;-58
2022/06/01 10:28:39;;;;;;;1.90;0.80;;;;;;;;;;5010840;28;20026;-59
2022/06/01 10:31:08;;;;;;;1.55;0.95;;;;;;;;;;5012210;28;20077;-58
2022/06/01 10:33:37;;;;;;;2.17;0.80;;;;;;;;;;5011823;28;20108;-59
2022/06/01 10:36:06;;;;;;;3.03;0.70;;;;;;;;;;5012043;28;20026;-58
2022/06/01 10:38:42;;;;;;;2.38;0.70;;;;;;;;;;5011232;28;20467;-58
2022/06/01 10:41:13;;;;;;;2.08;0.65;;;;;;;;;;5011803;28;20060;-58
2022/06/01 10:43:59;;;;;;;1.05;0.80;;;;;;;;;;5011079;28;20164;-59
2022/06/01 10:46:28;;;;;;;1.00;0.70;;;;;;;;;;5009377;28;20507;-59
2022/06/01 10:49:13;;;;;;;2.55;1.05;;;;;;;;;;5011395;28;20022;-59
2022/06/01 10:51:39;;;;;;;1.33;0.80;;;;;;;;;;5011220;28;20029;-58
2022/06/01 10:54:19;;;;;;;1.60;0.75;;;;;;;;;;5011137;28;20036;-58
2022/06/01 10:56:46;;;;;;;1.08;0.60;;;;;;;;;;5011373;28;20073;-58
2022/06/01 10:59:14;;;;;;;1.92;0.77;;;;;;;;;;5010471;28;20105;-59
2022/06/01 11:01:45;;;;;;;0.63;0.60;;;;;;;;;;5011341;28;20062;-59
2022/06/01 11:04:11;;;;;;;;;;;;;;;;;;5010399;28;20025;-59
2022/06/01 11:06:40;;;;;;;1.90;1.00;;;;;;;;;;5010708;28;19910;-58
2022/06/01 11:09:09;;;;;;;1.17;0.73;;;;;;;;;;5011173;28;20042;-59
2022/06/01 11:11:54;;;;;;;1.27;0.80;;;;;;;;;;5010556;28;20137;-58
2022/06/01 11:14:39;;;;;;;1.98;0.75;;;;;;;;;;5007081;28;20040;-58
2022/06/01 11:17:11;;;;;;;1.23;0.85;;;;;;;;;;5010076;28;20042;-59
2022/06/01 11:19:46;;;;;;;2.30;0.73;;;;;;;;;;5010707;28;20018;-59
2022/06/01 11:22:15;;;;;;;0.75;0.70;;;;;;;;;;5009828;28;20030;-59
2022/06/01 11:25:11;;;;;;;1.65;0.77;;;;;;;;;;5010537;28;20083;-58
2022/06/01 11:27:37;;;;;;;1.25;0.80;;;;;;;;;;5000826;28;20029;-58
2022/06/01 11:30:09;;;;;;;1.17;0.80;;;;;;;;;;5014283;28;20105;-58
2022/06/01 11:32:38;;;;;;;1.27;0.77;;;;;;;;;;5013988;28;20030;-59
2022/06/01 11:35:07;;;;;;;1.00;0.80;;;;;;;;;;5014157;28;20037;-58
2022/06/01 11:37:40;;;;;;;1.83;0.57;;;;;;;;;;5014008;28;20022;-59
2022/06/01 11:40:15;;;;;;;0.80;0.60;;;;;;;;;;5014561;28;20104;-58
2022/06/01 11:42:46;;;;;;;1.27;0.70;;;;;;;;;;5013596;28;20573;-58
2022/06/01 11:45:14;;;;;;;1.30;0.65;;;;;;;;;;4995698;28;20399;-58
2022/06/01 11:48:00;;;;;;;0.95;0.68;;;;;;;;;;5013688;28;20082;-58
2022/06/01 11:50:48;;;;;;;1.92;0.73;;;;;;;;;;5013419;28;20056;-59
2022/06/01 11:53:20;;;;;;;0.85;0.75;;;;;;;;;;5013134;28;20032;-59
2022/06/01 11:55:49;;;;;;;1.92;0.88;;;;;;;;;;5014489;28;20049;-59
2022/06/01 11:58:19;;;;;;;0.90;0.77;;;;;;;;;;5013116;28;20388;-59
2022/06/01 12:00:48;;;;;;;0.93;0.60;;;;;;;;;;5014245;28;20034;-59
2022/06/01 12:03:34;;;;;;;1.00;0.80;;;;;;;;;;5013282;28;20380;-59
2022/06/01 12:06:13;;;;;;;0.60;0.50;;;;;;;;;;5012819;28;20069;-59
2022/06/01 12:08:45;;;;;;;1.00;0.80;;;;;;;;;;5013871;28;20033;-58
2022/06/01 12:11:34;;;;;;;1.05;0.60;;;;;;;;;;5013514;28;20038;-58
2022/06/01 12:14:00;;;;;;;0.80;0.77;;;;;;;;;;5013541;28;20371;-58
2022/06/01 12:16:27;;;;;;;0.70;0.65;;;;;;;;;;5010941;28;20101;-58
2022/06/01 12:18:59;;;;;;;0.80;0.65;;;;;;;;;;5013316;28;20105;-58
2022/06/01 12:21:25;;;;;;;;;;;;;;;;;;5012999;28;20025;-58
2022/06/01 12:29:54;;;;;;;1.17;0.90;;;;;;;;;;5007371;28;20041;-58
2022/06/01 12:32:20;;;;;;;6.50;1.63;;;;;;;;;;5012413;28;20080;-58
2022/06/01 12:34:53;;;;;;;2.15;0.77;;;;;;;;;;5013167;28;20029;-58
2022/06/01 12:37:25;;;;;;;1.42;1.02;;;;;;;;;;5012015;28;20029;-58
2022/06/01 12:39:56;;;;;;;0.80;0.60;;;;;;;;;;5013096;28;20026;-58
2022/06/01 12:42:36;;;;;;;1.05;0.70;;;;;;;;;;5012461;28;20034;-59
2022/06/01 12:45:04;;;;;;;1.63;0.68;;;;;;;;;;5012509;28;20022;-58
2022/06/01 12:47:38;;;;;;;1.13;0.47;;;;;;;;;;5012195;28;20821;-59
2022/06/01 12:50:07;;;;;;;0.82;0.65;;;;;;;;;;5012835;28;20045;-59
2022/06/01 12:52:33;;;;;;;0.73;0.60;;;;;;;;;;5011940;28;20029;-58
2022/06/01 12:55:01;;;;;;;0.57;0.57;;;;;;;;;;5012949;28;20037;-59
2022/06/01 12:57:27;;;;;;;2.38;0.82;;;;;;;;;;5012190;28;20045;-59
2022/06/01 13:00:12;;;;;;;1.30;0.70;;;;;;;;;;5012872;28;20464;-58
2022/06/01 13:02:39;;;;;;;0.80;0.50;;;;;;;;;;5012580;28;20052;-58
2022/06/01 13:05:08;;;;;;;0.88;0.68;;;;;;;;;;5012491;28;20056;-59
2022/06/01 13:07:35;;;;;;;0.98;0.70;;;;;;;;;;5012132;28;20633;-59
2022/06/01 13:10:04;;;;;;;0.70;0.70;;;;;;;;;;5012835;28;20061;-59
2022/06/01 13:12:31;;;;;;;1.00;0.60;;;;;;;;;;5011725;28;20065;-58
2022/06/01 13:15:08;;;;;;;0.63;0.50;;;;;;;;;;5012190;28;20515;-59
2022/06/01 13:17:34;;;;;;;2.53;0.75;;;;;;;;;;5010658;28;20114;-59
2022/06/01 13:20:01;;;;;;;1.33;0.70;;;;;;;;;;5012715;28;20022;-59
2022/06/01 13:22:36;;;;;;;1.20;0.60;;;;;;;;;;5011510;28;20109;-59
2022/06/01 13:25:05;;;;;;;2.25;0.60;;;;;;;;;;5012217;28;20506;-58
2022/06/01 13:27:34;;;;;;;1.65;0.85;;;;;;;;;;5011429;28;20045;-59
2022/06/01 13:30:00;;;;;;;1.50;0.90;;;;;;;;;;5012538;28;20030;-58
2022/06/01 13:32:31;;;;;;;2.30;1.10;;;;;;;;;;5011605;28;20430;-58
2022/06/01 13:35:01;;;;;;;2.20;0.93;;;;;;;;;;5012283;28;20061;-59
2022/06/01 13:37:28;;;;;;;3.13;0.98;;;;;;;;;;5011199;28;20467;-59
2022/06/01 13:40:01;;;;;;;1.48;0.93;;;;;;;;;;5012111;28;20028;-58
2022/06/01 13:42:27;;;;;;;1.08;0.90;;;;;;;;;;5011365;28;20034;-58
2022/06/01 13:45:05;;;;;;;1.50;0.90;;;;;;;;;;5011785;28;20029;-58
2022/06/01 13:47:32;;;;;;;1.67;0.98;;;;;;;;;;5010679;28;20054;-59
2022/06/01 13:50:19;;;;;;;1.63;0.88;;;;;;;;;;5011773;28;20026;-58
2022/06/01 13:52:56;;;;;;;1.75;0.70;;;;;;;;;;5011343;28;20046;-59
2022/06/01 13:55:25;;;;;;;1.75;1.30;;;;;;;;;;5011144;28;20471;-59
2022/06/01 13:57:53;;;;;;;1.30;1.20;;;;;;;;;;5011857;28;20105;-59
2022/06/01 14:00:21;;;;;;;1.65;1.08;;;;;;;;;;5010480;28;20037;-55
2022/06/01 14:03:03;;;;;;;1.10;0.80;;;;;;;;;;5010023;28;20033;-59
2022/06/01 14:05:34;;;;;;;1.05;0.90;;;;;;;;;;5010176;28;20022;-59
2022/06/01 14:08:06;;;;;;;2.72;0.82;;;;;;;;;;5009945;28;20026;-58
2022/06/01 14:10:33;;;;;;;1.85;0.90;;;;;;;;;;5009831;28;20026;-59
2022/06/01 14:12:59;;;;;;;1.23;0.85;;;;;;;;;;5010224;28;20029;-58
2022/06/01 14:15:26;;;;;;;2.13;1.13;;;;;;;;;;5009226;28;20018;-58
2022/06/01 14:17:52;;;;;;;2.55;0.80;;;;;;;;;;5009936;28;20034;-58
2022/06/01 14:20:18;;;;;;;6.13;1.63;;;;;;;;;;5009292;28;20443;-58
2022/06/01 14:22:44;;;;;;;1.35;0.80;;;;;;;;;;5009953;28;20041;-58
2022/06/01 14:30:40;;;;;;;1.98;0.80;;;;;;;;;;5009123;28;20033;-58
2022/06/01 14:33:07;;;;;;;1.95;0.70;;;;;;;;;;5009913;28;20023;-57
2022/06/01 14:35:33;;;;;;;1.13;0.70;;;;;;;;;;5009390;28;20030;-58
2022/06/01 14:37:59;;;;;;;1.35;0.90;;;;;;;;;;5009158;28;20037;-57
2022/06/01 14:40:25;;;;;;;2.33;0.90;;;;;;;;;;5009612;28;20022;-59
2022/06/01 14:42:51;;;;;;;1.13;0.80;;;;;;;;;;5009925;28;20054;-58
2022/06/01 14:45:18;;;;;;;3.10;1.10;;;;;;;;;;5009196;28;20053;-59
2022/06/01 14:47:44;;;;;;;2.97;1.00;;;;;;;;;;5009889;28;20034;-58
2022/06/01 14:50:10;;;;;;;0.85;0.77;;;;;;;;;;5009863;28;20080;-58
2022/06/01 14:52:38;;;;;;;1.75;0.85;;;;;;;;;;5009157;28;20037;-58
2022/06/01 14:55:04;;;;;;;1.17;0.68;;;;;;;;;;5007474;28;20052;-58
2022/06/01 14:57:30;;;;;;;2.55;1.00;;;;;;;;;;5008668;28;20467;-58
2022/06/01 14:59:57;;;;;;;2.25;1.02;;;;;;;;;;5009895;28;20096;-58
2022/06/01 15:02:23;;;;;;;4.13;0.98;;;;;;;;;;5012991;28;20026;-59
2022/06/01 15:04:51;;;;;;;2.90;0.93;;;;;;;;;;5013523;28;20486;-58
2022/06/01 15:07:17;;;;;;;2.90;1.00;;;;;;;;;;5013285;28;20128;-59
2022/06/01 15:09:43;;;;;;;1.48;0.80;;;;;;;;;;5013747;28;20030;-58
2022/06/01 15:12:10;;;;;;;3.03;1.13;;;;;;;;;;5013864;28;20033;-59
2022/06/01 15:14:36;;;;;;;1.00;0.80;;;;;;;;;;5012355;28;20025;-59
2022/06/01 15:17:05;;;;;;;1.23;1.00;;;;;;;;;;5013455;28;20077;-59
2022/06/01 15:19:32;;;;;;;1.58;0.85;;;;;;;;;;5012744;28;20093;-58
2022/06/01 15:21:58;;;;;;;2.10;1.00;;;;;;;;;;5013232;28;20038;-59
2022/06/01 15:24:24;;;;;;;3.95;1.27;;;;;;;;;;5013026;28;20033;-58
2022/06/01 15:26:52;;;;;;;2.20;0.77;;;;;;;;;;5013653;28;20034;-57
2022/06/01 15:40:18;;;;;;;0.95;0.70;;;;;;;;;;5012024;28;20466;-58
2022/06/01 15:42:47;;;;;;;1.85;0.90;;;;;;;;;;5012944;28;20022;-58
2022/06/01 15:45:13;;;;;;;1.67;0.80;;;;;;;;;;5013471;28;20033;-57
2022/06/01 15:47:39;;;;;;;3.05;0.98;;;;;;;;;;5011819;28;20127;-57